createdAt,value
2022-12-15T00:00:23.462Z,85.90
2022-12-15T00:03:30.191Z,85.37
2022-12-15T00:06:19.150Z,91.17
2022-12-15T00:09:08.442Z,92.53
2022-12-15T00:11:57.654Z,89.97
2022-12-15T00:14:43.843Z,88.63
2022-12-15T00:17:30.703Z,86.03
2022-12-15T00:20:17.028Z,90.73
2022-12-15T00:23:03.897Z,84.23
2022-12-15T00:25:50.246Z,80.40
2022-12-15T00:28:36.860Z,82.70
2022-12-15T00:31:23.245Z,80.13
2022-12-15T00:34:10.296Z,81.27
2022-12-15T00:36:56.398Z,80.17
2022-12-15T00:39:24.384Z,81.43
2022-12-15T00:41:51.956Z,84.80
2022-12-15T00:44:21.541Z,83.80
2022-12-15T00:46:55.433Z,90.40
2022-12-15T00:49:43.531Z,89.90
2022-12-15T00:52:30.106Z,83.87
2022-12-15T00:55:17.019Z,85.00
2022-12-15T00:58:03.933Z,88.23
2022-12-15T01:00:51.399Z,85.43
2022-12-15T01:03:42.583Z,82.60
2022-12-15T01:06:31.367Z,83.73
2022-12-15T01:09:17.730Z,82.60
2022-12-15T01:12:05.376Z,79.63
2022-12-15T01:14:51.620Z,80.27
2022-12-15T01:17:38.386Z,78.97
2022-12-15T01:20:20.541Z,77.87
2022-12-15T01:22:51.772Z,82.33
2022-12-15T01:25:22.432Z,79.67
2022-12-15T01:27:51.850Z,81.17
2022-12-15T01:30:22.731Z,84.60
2022-12-15T01:32:51.134Z,80.87
2022-12-15T01:35:20.384Z,79.57
2022-12-15T01:37:50.170Z,80.17
2022-12-15T01:40:39.047Z,80.30
2022-12-15T01:43:17.347Z,78.60
2022-12-15T01:45:49.477Z,77.33
2022-12-15T01:48:26.843Z,80.43
2022-12-15T01:51:07.218Z,79.47
2022-12-15T01:53:57.654Z,82.47
2022-12-15T01:56:30.055Z,84.43
2022-12-15T01:59:03.935Z,82.60
2022-12-15T02:01:32.408Z,83.00
2022-12-15T02:04:00.949Z,83.10
2022-12-15T02:06:29.683Z,82.47
2022-12-15T02:08:59.784Z,84.77
2022-12-15T02:12:05.925Z,68.57
2022-12-15T02:14:46.012Z,78.80
2022-12-15T02:17:13.733Z,81.53
2022-12-15T02:19:59.360Z,78.33
2022-12-15T02:22:36.739Z,79.07
2022-12-15T02:25:31.060Z,80.03
2022-12-15T02:28:25.747Z,80.40
2022-12-15T02:31:33.299Z,80.67
2022-12-15T02:34:08.596Z,81.20
2022-12-15T02:36:41.015Z,80.30
2022-12-15T02:39:08.700Z,78.23
2022-12-15T02:41:40.929Z,79.70
2022-12-15T02:44:26.487Z,79.93
2022-12-15T02:47:03.358Z,80.13
2022-12-15T02:50:01.332Z,81.67
2022-12-15T02:52:55.378Z,81.00
2022-12-15T02:55:52.209Z,83.03
2022-12-15T02:58:46.156Z,79.23
2022-12-15T03:01:32.722Z,80.20
2022-12-15T03:04:04.614Z,79.27
2022-12-15T03:06:32.340Z,80.07
2022-12-15T03:09:00.262Z,81.03
2022-12-15T03:11:28.701Z,82.80
2022-12-15T03:13:58.743Z,80.20
2022-12-15T03:16:26.516Z,77.73
2022-12-15T03:18:54.486Z,79.17
2022-12-15T03:21:22.403Z,79.13
2022-12-15T03:23:50.557Z,77.17
2022-12-15T03:26:18.334Z,78.90
2022-12-15T03:28:46.717Z,76.20
2022-12-15T03:31:14.587Z,78.43
2022-12-15T03:33:43.217Z,76.80
2022-12-15T03:36:11.825Z,78.77
2022-12-15T03:38:40.477Z,77.87
2022-12-15T03:41:09.152Z,76.47
2022-12-15T03:43:37.451Z,80.20
2022-12-15T03:46:05.209Z,79.67
2022-12-15T03:48:34.086Z,80.90
2022-12-15T03:51:03.158Z,78.17
2022-12-15T03:53:31.639Z,81.30
2022-12-15T03:55:59.653Z,82.47
2022-12-15T03:58:27.709Z,75.83
2022-12-15T04:00:56.940Z,82.67
2022-12-15T04:03:25.285Z,78.67
2022-12-15T04:05:53.033Z,78.43
2022-12-15T04:08:27.283Z,78.80
2022-12-15T04:10:55.086Z,77.13
2022-12-15T04:13:23.065Z,80.53
2022-12-15T04:15:51.296Z,80.27
2022-12-15T04:18:19.309Z,81.77
2022-12-15T04:20:47.287Z,80.33
2022-12-15T04:23:18.583Z,85.27
2022-12-15T04:26:04.812Z,84.27
2022-12-15T04:28:51.481Z,86.20
2022-12-15T04:31:50.900Z,82.03
2022-12-15T04:34:40.528Z,87.53
2022-12-15T04:37:32.616Z,117.47
2022-12-15T04:40:19.741Z,102.40
2022-12-15T04:43:06.898Z,100.33
2022-12-15T04:45:53.620Z,101.83
2022-12-15T04:48:40.005Z,101.40
2022-12-15T04:51:26.626Z,106.63
2022-12-15T04:54:12.759Z,102.97
2022-12-15T04:56:59.597Z,107.43
2022-12-15T04:59:45.910Z,107.17
2022-12-15T05:02:32.656Z,98.47
2022-12-15T05:05:19.490Z,103.50
2022-12-15T05:08:06.256Z,106.00
2022-12-15T05:10:52.430Z,98.63
2022-12-15T05:13:39.318Z,101.47
2022-12-15T05:16:25.902Z,99.93
2022-12-15T05:19:12.700Z,102.37
2022-12-15T05:21:59.080Z,108.90
2022-12-15T05:24:45.581Z,106.83
2022-12-15T05:27:31.776Z,106.77
2022-12-15T05:30:18.393Z,102.10
2022-12-15T05:32:46.108Z,98.67
2022-12-15T05:35:17.989Z,92.83
2022-12-15T05:37:45.902Z,94.20
2022-12-15T05:40:14.013Z,91.13
2022-12-15T05:42:41.630Z,90.33
2022-12-15T05:45:11.146Z,91.70
2022-12-15T05:47:38.708Z,113.47
2022-12-15T05:50:07.706Z,121.27
2022-12-15T05:52:35.436Z,92.33
2022-12-15T05:55:04.220Z,94.20
2022-12-15T05:57:31.955Z,92.93
2022-12-15T06:00:00.068Z,89.63
2022-12-15T06:02:29.444Z,99.70
2022-12-15T06:04:57.518Z,104.43
2022-12-15T06:07:26.141Z,104.53
2022-12-15T06:09:54.130Z,94.80
2022-12-15T06:12:21.893Z,93.90
2022-12-15T06:14:50.134Z,92.97
2022-12-15T06:17:17.936Z,92.00
2022-12-15T06:19:46.189Z,91.60
2022-12-15T06:22:14.465Z,87.67
2022-12-15T06:24:42.735Z,87.67
2022-12-15T06:27:10.221Z,90.97
2022-12-15T06:29:38.186Z,96.23
2022-12-15T06:32:06.029Z,92.53
2022-12-15T06:34:34.104Z,93.27
2022-12-15T06:37:02.743Z,95.27
2022-12-15T06:39:30.759Z,90.73
2022-12-15T06:41:58.404Z,93.77
2022-12-15T06:44:26.287Z,102.33
2022-12-15T06:46:54.040Z,91.67
2022-12-15T06:49:22.097Z,89.60
2022-12-15T06:51:50.205Z,89.47
2022-12-15T06:54:17.832Z,98.27
2022-12-15T06:56:46.520Z,94.63
2022-12-15T06:59:18.145Z,93.37
2022-12-15T07:01:46.194Z,93.03
2022-12-15T07:04:14.047Z,90.70
2022-12-15T07:06:42.588Z,90.57
2022-12-15T07:09:16.221Z,96.97
2022-12-15T07:11:47.326Z,113.10
2022-12-15T07:14:16.132Z,104.63
2022-12-15T07:16:45.855Z,97.37
2022-12-15T07:19:15.201Z,97.60
2022-12-15T07:21:42.661Z,107.60
2022-12-15T07:24:13.083Z,106.13
2022-12-15T07:26:41.685Z,113.10
2022-12-15T07:29:16.898Z,108.13
2022-12-15T07:31:47.607Z,106.37
2022-12-15T07:34:15.895Z,107.37
2022-12-15T07:36:49.969Z,108.27
2022-12-15T07:39:20.477Z,105.40
2022-12-15T07:41:48.608Z,99.77
2022-12-15T07:44:17.198Z,100.30
2022-12-15T07:46:49.472Z,97.27
2022-12-15T07:49:18.358Z,100.33
2022-12-15T07:51:47.376Z,98.70
2022-12-15T07:54:15.866Z,91.97
2022-12-15T07:56:43.241Z,95.20
2022-12-15T07:59:10.807Z,98.63
2022-12-15T08:01:38.696Z,91.53
2022-12-15T08:04:07.087Z,96.73
2022-12-15T08:06:34.425Z,90.33
2022-12-15T08:09:02.479Z,97.43
2022-12-15T08:11:34.563Z,95.97
2022-12-15T08:14:04.076Z,99.93
2022-12-15T08:16:34.917Z,97.63
2022-12-15T08:19:05.412Z,96.70
2022-12-15T08:21:33.369Z,95.13
2022-12-15T08:24:01.128Z,96.47
2022-12-15T08:26:30.907Z,92.13
2022-12-15T08:31:52.191Z,91.27
2022-12-15T08:34:20.227Z,97.97
2022-12-15T08:36:47.558Z,91.50
2022-12-15T08:39:15.530Z,91.03
2022-12-15T08:41:43.258Z,99.03
2022-12-15T08:44:10.914Z,92.17
2022-12-15T08:46:38.802Z,116.33
2022-12-15T08:49:06.488Z,107.20
2022-12-15T08:51:34.205Z,96.63
2022-12-15T08:54:02.394Z,89.33
2022-12-15T08:56:30.524Z,89.97
2022-12-15T08:59:00.356Z,90.77
2022-12-15T09:01:31.675Z,92.20
2022-12-15T09:03:59.829Z,93.27
2022-12-15T09:06:33.940Z,88.57
2022-12-15T09:09:04.046Z,86.10
2022-12-15T09:11:31.726Z,84.10
2022-12-15T09:14:00.109Z,84.07
2022-12-15T09:16:28.427Z,84.03
2022-12-15T09:18:58.364Z,92.37
2022-12-15T09:21:30.036Z,98.33
2022-12-15T09:24:03.138Z,105.70
2022-12-15T09:26:33.857Z,122.90
2022-12-15T09:29:02.350Z,118.03
2022-12-15T09:31:36.991Z,110.30
2022-12-15T09:34:04.657Z,108.77
2022-12-15T09:36:35.763Z,96.87
2022-12-15T09:39:04.004Z,94.90
2022-12-15T09:41:35.315Z,99.33
2022-12-15T09:44:03.764Z,88.13
2022-12-15T09:46:31.595Z,92.10
2022-12-15T09:49:02.157Z,95.20
2022-12-15T09:51:40.686Z,97.40
2022-12-15T09:54:11.617Z,100.33
2022-12-15T09:56:42.564Z,95.97
2022-12-15T09:59:45.223Z,95.47
2022-12-15T10:02:14.085Z,91.70
2022-12-15T10:04:54.526Z,93.50
2022-12-15T10:07:32.070Z,94.20
2022-12-15T10:10:00.173Z,94.43
2022-12-15T10:12:34.357Z,101.97
2022-12-15T10:15:23.634Z,102.87
2022-12-15T10:18:24.844Z,94.57
2022-12-15T10:20:54.776Z,84.27
2022-12-15T10:23:22.387Z,76.97
2022-12-15T10:25:59.835Z,73.90
2022-12-15T10:29:01.041Z,83.50
2022-12-15T10:31:29.165Z,72.00
2022-12-15T10:34:11.467Z,70.07
2022-12-15T10:36:50.502Z,72.20
2022-12-15T10:39:18.406Z,66.40
2022-12-15T10:41:45.860Z,63.57
2022-12-15T10:44:32.087Z,61.90
2022-12-15T10:47:29.283Z,67.03
2022-12-15T10:50:24.724Z,64.07
2022-12-15T10:52:53.291Z,63.97
2022-12-15T10:55:43.791Z,61.13
2022-12-15T10:58:23.280Z,64.73
2022-12-15T11:01:06.945Z,65.93
2022-12-15T11:03:39.954Z,67.23
2022-12-15T11:06:16.865Z,63.30
2022-12-15T11:08:45.214Z,65.93
2022-12-15T11:11:45.430Z,63.20
2022-12-15T11:14:16.553Z,76.40
2022-12-15T11:16:49.562Z,59.17
2022-12-15T11:19:26.987Z,59.43
2022-12-15T11:22:00.059Z,67.87
2022-12-15T11:24:44.254Z,79.77
2022-12-15T11:27:26.123Z,100.90
2022-12-15T11:30:03.361Z,86.60
2022-12-15T11:32:35.574Z,91.47
2022-12-15T11:35:03.699Z,69.67
2022-12-15T11:37:37.091Z,74.67
2022-12-15T11:40:34.613Z,85.67
2022-12-15T11:43:17.019Z,71.13
2022-12-15T11:46:05.098Z,63.83
2022-12-15T11:48:57.529Z,62.07
2022-12-15T11:51:39.328Z,60.73
2022-12-15T11:54:21.809Z,65.67
2022-12-15T11:57:04.954Z,62.63
2022-12-15T12:00:01.856Z,64.00
2022-12-15T12:03:16.565Z,58.23
2022-12-15T12:05:58.908Z,61.60
2022-12-15T12:08:36.244Z,56.60
2022-12-15T12:11:25.540Z,55.53
2022-12-15T12:14:11.720Z,58.37
2022-12-15T12:17:00.700Z,56.53
2022-12-15T12:19:36.637Z,58.53
2022-12-15T12:22:22.130Z,66.43
2022-12-15T12:25:19.201Z,78.83
2022-12-15T12:27:55.862Z,75.73
2022-12-15T12:30:28.024Z,96.07
2022-12-15T12:33:34.041Z,78.63
2022-12-15T12:36:13.275Z,72.10
2022-12-15T12:39:01.357Z,67.47
2022-12-15T12:41:59.644Z,71.83
2022-12-15T12:44:34.403Z,72.93
2022-12-15T12:47:15.412Z,80.50
2022-12-15T12:49:50.207Z,83.70
2022-12-15T12:52:25.143Z,75.47
2022-12-15T12:55:14.508Z,76.33
2022-12-15T12:57:43.082Z,76.53
2022-12-15T13:00:29.627Z,81.07
2022-12-15T13:03:13.466Z,88.00
2022-12-15T13:05:42.013Z,91.17
2022-12-15T13:08:09.773Z,94.87
2022-12-15T13:10:39.142Z,99.17
2022-12-15T13:13:31.899Z,101.57
2022-12-15T13:16:27.746Z,106.80
2022-12-15T13:19:04.787Z,101.10
2022-12-15T13:21:42.337Z,105.60
2022-12-15T13:24:33.687Z,131.87
2022-12-15T13:27:20.083Z,146.50
2022-12-15T13:30:10.926Z,125.67
2022-12-15T13:32:52.553Z,110.83
2022-12-15T13:35:29.382Z,113.40
2022-12-15T13:38:08.070Z,111.43
2022-12-15T13:40:36.315Z,115.40
2022-12-15T13:43:04.023Z,115.50
2022-12-15T13:45:38.491Z,113.73
2022-12-15T13:48:27.830Z,117.00
2022-12-15T13:51:05.920Z,114.50
2022-12-15T13:53:41.759Z,116.23
2022-12-15T13:56:12.214Z,110.03
2022-12-15T13:58:51.154Z,103.17
2022-12-15T14:01:31.749Z,108.70
2022-12-15T14:04:05.734Z,107.97
2022-12-15T14:06:50.695Z,111.17
2022-12-15T14:09:24.298Z,107.93
2022-12-15T14:11:54.162Z,113.83
2022-12-15T14:14:28.664Z,112.93
2022-12-15T14:17:07.145Z,113.03
2022-12-15T14:19:43.963Z,107.83
2022-12-15T14:22:28.957Z,97.13
2022-12-15T14:25:35.520Z,100.20
2022-12-15T14:28:10.603Z,108.40
2022-12-15T14:30:42.043Z,111.17
2022-12-15T14:33:16.357Z,96.50
2022-12-15T14:35:50.690Z,88.43
2022-12-15T14:38:40.199Z,89.27
2022-12-15T14:41:13.499Z,87.03
2022-12-15T14:43:41.691Z,84.77
2022-12-15T14:46:17.871Z,86.57
2022-12-15T14:48:59.567Z,98.97
2022-12-15T14:51:30.170Z,97.87
2022-12-15T14:53:58.277Z,83.83
2022-12-15T14:56:31.183Z,88.00
2022-12-15T14:59:04.039Z,94.20
2022-12-15T15:01:58.254Z,86.10
2022-12-15T15:04:31.466Z,90.93
2022-12-15T15:07:05.333Z,82.80
2022-12-15T15:09:40.435Z,81.37
2022-12-15T15:12:23.857Z,84.90
2022-12-15T15:15:00.430Z,80.60
2022-12-15T15:17:44.313Z,78.10
2022-12-15T15:20:23.475Z,77.47
2022-12-15T15:23:20.060Z,81.00
2022-12-15T15:25:57.158Z,75.33
2022-12-15T15:28:28.198Z,75.13
2022-12-15T15:31:00.699Z,86.00
2022-12-15T15:33:29.290Z,92.30
2022-12-15T15:35:59.868Z,78.80
2022-12-15T15:38:35.765Z,76.77
2022-12-15T15:41:17.218Z,66.10
2022-12-15T15:43:45.418Z,66.77
2022-12-15T15:46:34.764Z,64.47
2022-12-15T15:49:10.447Z,62.70
2022-12-15T15:51:38.735Z,58.53
2022-12-15T15:54:10.878Z,57.60
2022-12-15T15:56:39.369Z,57.20
2022-12-15T15:59:13.710Z,59.37
2022-12-15T16:01:41.770Z,58.70
2022-12-15T16:04:09.885Z,58.53
2022-12-15T16:06:42.103Z,57.10
2022-12-15T16:09:15.295Z,57.37
2022-12-15T16:11:43.664Z,53.47
2022-12-15T16:14:16.411Z,54.17
2022-12-15T16:16:44.796Z,53.63
2022-12-15T16:19:12.601Z,50.33
2022-12-15T16:21:41.708Z,51.93
2022-12-15T16:24:16.231Z,52.83
2022-12-15T16:26:53.424Z,53.80
2022-12-15T16:29:21.802Z,53.37
2022-12-15T16:31:50.358Z,52.37
2022-12-15T16:34:19.350Z,54.00
2022-12-15T16:36:49.535Z,51.17
2022-12-15T16:39:35.230Z,52.03
2022-12-15T16:42:05.049Z,52.20
2022-12-15T16:44:32.851Z,59.27
2022-12-15T16:47:02.739Z,56.27
2022-12-15T16:49:33.975Z,57.03
2022-12-15T16:52:07.644Z,57.73
2022-12-15T16:54:35.534Z,59.17
2022-12-15T16:57:05.796Z,60.40
2022-12-15T16:59:35.920Z,58.57
2022-12-15T17:02:28.872Z,58.83
2022-12-15T17:04:59.230Z,62.17
2022-12-15T17:07:28.327Z,68.13
2022-12-15T17:09:56.527Z,66.07
2022-12-15T17:12:25.457Z,62.83
2022-12-15T17:14:53.931Z,62.43
2022-12-15T17:17:22.976Z,62.53
2022-12-15T17:20:27.371Z,64.57
2022-12-15T17:22:40.269Z,64.27
2022-12-15T17:25:16.837Z,61.50
2022-12-15T17:27:45.354Z,58.57
2022-12-15T17:30:15.780Z,68.77
2022-12-15T17:32:45.614Z,75.43
2022-12-15T17:35:15.178Z,62.70
2022-12-15T17:37:46.381Z,62.20
2022-12-15T17:40:22.939Z,61.43
2022-12-15T17:42:51.597Z,64.20
2022-12-15T17:45:23.395Z,60.23
2022-12-15T17:47:52.781Z,62.07
2022-12-15T17:50:20.146Z,60.73
2022-12-15T17:52:48.932Z,62.63
2022-12-15T17:55:22.801Z,64.97
2022-12-15T17:57:51.091Z,60.47
2022-12-15T18:00:30.384Z,61.37
2022-12-15T18:03:00.449Z,61.97
2022-12-15T18:05:30.429Z,60.23
2022-12-15T18:08:07.237Z,70.97
2022-12-15T18:10:38.659Z,64.20
2022-12-15T18:13:19.016Z,63.97
2022-12-15T18:15:47.194Z,65.27
2022-12-15T18:18:16.682Z,63.83
2022-12-15T18:20:44.887Z,63.40
2022-12-15T18:23:18.417Z,59.43
2022-12-15T18:25:46.216Z,61.97
2022-12-15T18:28:35.486Z,66.70
2022-12-15T18:31:26.312Z,63.07
2022-12-15T18:34:04.094Z,65.50
2022-12-15T18:36:32.642Z,64.73
2022-12-15T18:39:13.969Z,66.33
2022-12-15T18:41:41.818Z,68.67
2022-12-15T18:44:24.943Z,68.47
2022-12-15T18:46:53.366Z,76.87
2022-12-15T18:49:23.932Z,84.33
2022-12-15T18:51:51.908Z,76.60
2022-12-15T18:54:24.060Z,75.33
2022-12-15T18:56:52.214Z,73.33
2022-12-15T18:59:23.097Z,72.10
2022-12-15T19:01:50.900Z,75.53
2022-12-15T19:04:19.109Z,75.57
2022-12-15T19:06:47.260Z,74.43
2022-12-15T19:09:18.279Z,81.70
2022-12-15T19:12:13.343Z,77.07
2022-12-15T19:14:41.413Z,78.63
2022-12-15T19:17:36.537Z,82.97
2022-12-15T19:20:37.187Z,85.50
2022-12-15T19:23:06.924Z,85.60
2022-12-15T19:25:35.354Z,82.27
2022-12-15T19:28:03.048Z,79.80
2022-12-15T19:30:36.997Z,84.20
2022-12-15T19:33:13.709Z,79.67
2022-12-15T19:35:44.775Z,77.30
2022-12-15T19:38:23.705Z,78.53
2022-12-15T19:40:55.122Z,79.87
2022-12-15T19:43:24.194Z,76.47
2022-12-15T19:45:52.589Z,76.70
2022-12-15T19:48:23.845Z,79.40
2022-12-15T19:50:54.659Z,75.70
2022-12-15T19:53:26.465Z,70.07
2022-12-15T19:55:56.566Z,68.47
2022-12-15T19:58:37.233Z,72.83
2022-12-15T20:01:09.060Z,70.90
2022-12-15T20:03:37.712Z,75.40
2022-12-15T20:06:24.800Z,75.90
2022-12-15T20:08:56.504Z,72.37
2022-12-15T20:11:28.014Z,76.63
2022-12-15T20:13:56.276Z,73.97
2022-12-15T20:16:24.934Z,74.47
2022-12-15T20:18:55.208Z,70.57
2022-12-15T20:21:29.129Z,70.80
2022-12-15T20:24:02.484Z,70.60
2022-12-15T20:26:31.375Z,68.87
2022-12-15T20:28:59.640Z,71.00
2022-12-15T20:31:27.851Z,67.37
2022-12-15T20:33:56.646Z,71.00
2022-12-15T20:36:28.362Z,70.63
2022-12-15T20:38:56.807Z,71.87
2022-12-15T20:41:27.997Z,67.67
2022-12-15T20:43:56.437Z,68.93
2022-12-15T20:46:27.682Z,73.17
2022-12-15T20:48:55.937Z,71.57
2022-12-15T20:51:24.059Z,72.27
2022-12-15T20:53:52.432Z,70.03
2022-12-15T20:56:22.256Z,70.97
2022-12-15T20:58:51.396Z,79.57
2022-12-15T21:01:23.460Z,79.13
2022-12-15T21:03:54.122Z,75.57
2022-12-15T21:06:23.215Z,76.57
2022-12-15T21:08:51.258Z,80.80
2022-12-15T21:11:25.746Z,76.77
2022-12-15T21:13:56.613Z,78.23
2022-12-15T21:16:27.341Z,78.93
2022-12-15T21:19:19.203Z,79.97
2022-12-15T21:21:48.980Z,81.27
2022-12-15T21:24:25.068Z,78.73
2022-12-15T21:26:53.792Z,80.53
2022-12-15T21:29:25.381Z,74.60
2022-12-15T21:31:53.667Z,77.17
2022-12-15T21:34:21.537Z,80.00
2022-12-15T21:36:54.907Z,76.77
2022-12-15T21:39:25.016Z,78.10
2022-12-15T21:41:53.029Z,77.13
2022-12-15T21:44:23.044Z,80.83
2022-12-15T21:46:51.613Z,78.70
2022-12-15T21:49:19.616Z,76.87
2022-12-15T21:51:56.510Z,77.37
2022-12-15T21:54:30.914Z,74.93
2022-12-15T21:57:00.350Z,78.77
2022-12-15T21:59:31.904Z,79.07
2022-12-15T22:02:01.139Z,78.07
2022-12-15T22:04:29.053Z,74.03
2022-12-15T22:06:57.251Z,78.53
2022-12-15T22:09:24.963Z,78.10
2022-12-15T22:11:54.296Z,79.57
2022-12-15T22:14:32.178Z,79.20
2022-12-15T22:17:02.367Z,81.97
2022-12-15T22:19:30.395Z,94.80
2022-12-15T22:21:58.748Z,99.03
2022-12-15T22:24:26.480Z,106.90
2022-12-15T22:26:54.472Z,107.37
2022-12-15T22:29:23.497Z,103.17
2022-12-15T22:31:53.087Z,95.57
2022-12-15T22:34:26.273Z,91.80
2022-12-15T22:36:54.931Z,91.97
2022-12-15T22:39:23.170Z,95.30
2022-12-15T22:41:52.589Z,98.60
2022-12-15T22:44:33.139Z,92.27
2022-12-15T22:47:05.306Z,89.23
2022-12-15T22:49:36.487Z,88.77
2022-12-15T22:52:16.038Z,91.83
2022-12-15T22:54:46.005Z,90.40
2022-12-15T22:57:26.117Z,89.07
2022-12-15T23:00:03.470Z,80.53
2022-12-15T23:02:36.785Z,86.37
2022-12-15T23:05:05.798Z,82.73
2022-12-15T23:07:34.419Z,83.37
2022-12-15T23:10:21.110Z,80.23
2022-12-15T23:12:54.414Z,76.17
2022-12-15T23:15:41.654Z,75.23
2022-12-15T23:18:09.846Z,79.13
2022-12-15T23:20:37.472Z,73.00
2022-12-15T23:23:05.470Z,77.03
2022-12-15T23:25:33.392Z,77.03
2022-12-15T23:28:01.381Z,74.97
2022-12-15T23:30:29.545Z,74.70
2022-12-15T23:32:57.544Z,76.53
2022-12-15T23:35:24.883Z,80.57
2022-12-15T23:37:52.865Z,78.10
2022-12-15T23:40:22.561Z,80.80
2022-12-15T23:42:50.726Z,80.87
2022-12-15T23:45:19.175Z,82.10
2022-12-15T23:47:47.337Z,78.97
2022-12-15T23:50:15.298Z,79.83
2022-12-15T23:52:43.377Z,77.57
2022-12-15T23:55:11.293Z,80.90
2022-12-15T23:57:39.557Z,79.20
